createdAt,value
2022-07-30T00:01:17.550Z,100.00
2022-07-30T00:03:44.391Z,100.00
2022-07-30T00:06:11.187Z,100.00
2022-07-30T00:08:37.891Z,100.00
2022-07-30T00:11:04.550Z,100.00
2022-07-30T00:13:31.226Z,100.00
2022-07-30T00:15:58.243Z,100.00
2022-07-30T00:18:25.030Z,100.00
2022-07-30T00:20:51.800Z,100.00
2022-07-30T00:23:18.726Z,95.98
2022-07-30T00:25:45.465Z,99.05
2022-07-30T00:28:12.238Z,99.00
2022-07-30T00:30:40.714Z,98.46
2022-07-30T00:33:08.293Z,99.28
2022-07-30T00:35:35.472Z,98.01
2022-07-30T00:38:02.095Z,96.43
2022-07-30T00:40:29.012Z,97.95
2022-07-30T00:42:55.939Z,95.03
2022-07-30T00:45:22.898Z,96.62
2022-07-30T00:47:49.855Z,94.06
2022-07-30T00:50:16.866Z,95.57
2022-07-30T00:52:44.326Z,96.89
2022-07-30T00:55:14.098Z,94.05
2022-07-30T00:57:42.545Z,91.09
2022-07-30T01:00:16.947Z,91.24
2022-07-30T01:02:43.926Z,91.26
2022-07-30T01:05:11.133Z,91.24
2022-07-30T01:07:38.084Z,91.45
2022-07-30T01:10:06.829Z,89.47
2022-07-30T01:12:34.025Z,90.35
2022-07-30T01:15:03.277Z,89.63
2022-07-30T01:17:30.008Z,88.23
2022-07-30T01:20:02.047Z,88.35
2022-07-30T01:22:30.677Z,88.25
2022-07-30T01:25:03.723Z,87.46
2022-07-30T01:27:35.083Z,87.50
2022-07-30T01:30:04.396Z,87.84
2022-07-30T01:32:33.417Z,85.72
2022-07-30T01:35:04.075Z,82.47
2022-07-30T01:37:33.619Z,79.33
2022-07-30T01:40:00.699Z,81.35
2022-07-30T01:42:29.776Z,82.57
2022-07-30T01:44:58.534Z,80.10
2022-07-30T01:47:27.900Z,82.54
2022-07-30T01:49:57.159Z,82.27
2022-07-30T01:52:26.519Z,79.04
2022-07-30T01:54:56.370Z,79.46
2022-07-30T01:57:23.428Z,79.20
2022-07-30T01:59:54.854Z,79.84
2022-07-30T02:02:21.574Z,78.92
2022-07-30T02:04:49.435Z,79.13
2022-07-30T02:07:31.941Z,77.85
2022-07-30T02:10:05.322Z,79.32
2022-07-30T02:12:43.430Z,80.71
2022-07-30T02:15:16.150Z,79.37
2022-07-30T02:18:04.060Z,79.32
2022-07-30T02:20:35.795Z,78.48
2022-07-30T02:23:12.635Z,77.87
2022-07-30T02:25:44.802Z,78.00
2022-07-30T02:28:14.786Z,78.89
2022-07-30T02:30:49.821Z,79.81
2022-07-30T02:33:23.663Z,81.65
2022-07-30T02:35:54.478Z,85.87
2022-07-30T02:38:21.840Z,87.73
2022-07-30T02:40:50.066Z,88.41
2022-07-30T02:43:18.350Z,88.92
2022-07-30T02:45:48.022Z,88.39
2022-07-30T02:48:34.623Z,90.86
2022-07-30T02:51:04.382Z,86.11
2022-07-30T02:53:32.746Z,87.08
2022-07-30T02:56:01.931Z,87.40
2022-07-30T02:58:29.615Z,88.28
2022-07-30T03:00:57.818Z,85.86
2022-07-30T03:03:29.111Z,91.47
2022-07-30T03:05:57.287Z,89.47
2022-07-30T03:08:26.446Z,86.87
2022-07-30T03:10:56.249Z,94.92
2022-07-30T03:13:25.552Z,97.00
2022-07-30T03:15:53.910Z,98.80
2022-07-30T03:18:22.113Z,100.00
2022-07-30T03:20:53.523Z,100.00
2022-07-30T03:23:22.665Z,100.00
2022-07-30T03:25:56.751Z,100.00
2022-07-30T03:28:25.341Z,100.00
2022-07-30T03:30:53.631Z,100.00
2022-07-30T03:33:21.519Z,100.00
2022-07-30T03:35:49.849Z,96.86
2022-07-30T03:38:17.638Z,97.48
2022-07-30T03:40:45.450Z,98.63
2022-07-30T03:43:18.575Z,97.82
2022-07-30T03:46:05.319Z,96.41
2022-07-30T03:48:35.742Z,96.06
2022-07-30T03:51:10.207Z,91.83
2022-07-30T03:53:41.239Z,90.31
2022-07-30T03:56:31.298Z,92.66
2022-07-30T03:58:57.963Z,94.21
2022-07-30T04:01:26.550Z,92.48
2022-07-30T04:04:10.989Z,92.72
2022-07-30T04:06:39.799Z,94.45
2022-07-30T04:09:08.234Z,96.43
2022-07-30T04:11:41.002Z,97.31
2022-07-30T04:14:11.572Z,98.40
2022-07-30T04:16:54.787Z,97.87
2022-07-30T04:19:47.416Z,98.82
2022-07-30T04:22:20.329Z,97.33
2022-07-30T04:24:48.098Z,97.23
2022-07-30T04:27:16.904Z,96.70
2022-07-30T04:29:44.622Z,100.00
2022-07-30T04:32:12.846Z,100.00
2022-07-30T04:34:59.748Z,100.00
2022-07-30T04:38:04.123Z,100.00
2022-07-30T04:40:31.923Z,100.00
2022-07-30T04:42:58.650Z,100.00
2022-07-30T04:45:26.162Z,100.00
2022-07-30T04:47:58.223Z,100.00
2022-07-30T04:50:47.165Z,100.00
2022-07-30T04:53:19.633Z,100.00
2022-07-30T04:55:54.637Z,100.00
2022-07-30T04:58:25.963Z,100.00
2022-07-30T05:00:55.523Z,100.00
2022-07-30T05:03:28.110Z,100.00
2022-07-30T05:05:57.588Z,100.00
2022-07-30T05:08:26.560Z,100.00
2022-07-30T05:10:53.874Z,100.00
2022-07-30T05:13:22.273Z,100.00
2022-07-30T05:15:49.459Z,100.00
2022-07-30T05:18:18.689Z,100.00
2022-07-30T05:20:46.794Z,100.00
2022-07-30T05:23:21.950Z,100.00
2022-07-30T05:26:08.834Z,100.00
2022-07-30T05:28:40.515Z,100.00
2022-07-30T05:31:11.168Z,100.00
2022-07-30T05:33:42.343Z,100.00
2022-07-30T05:36:12.649Z,100.00
2022-07-30T05:38:40.348Z,100.00
2022-07-30T05:41:33.006Z,100.00
2022-07-30T05:44:22.118Z,100.00
2022-07-30T05:46:50.506Z,100.00
2022-07-30T05:49:17.428Z,100.00
2022-07-30T05:51:44.241Z,100.00
2022-07-30T05:54:12.018Z,100.00
2022-07-30T05:57:01.843Z,100.00
2022-07-30T05:59:33.056Z,100.00
2022-07-30T06:02:06.712Z,100.00
2022-07-30T06:04:52.246Z,100.00
2022-07-30T06:07:19.277Z,100.00
2022-07-30T06:09:46.177Z,100.00
2022-07-30T06:12:13.884Z,100.00
2022-07-30T06:14:41.570Z,100.00
2022-07-30T06:17:13.390Z,100.00
2022-07-30T06:20:01.179Z,100.00
2022-07-30T06:22:31.034Z,100.00
2022-07-30T06:25:02.472Z,100.00
2022-07-30T06:27:32.457Z,100.00
2022-07-30T06:30:01.995Z,100.00
2022-07-30T06:32:28.706Z,100.00
2022-07-30T06:35:03.959Z,100.00
2022-07-30T06:37:58.772Z,100.00
2022-07-30T06:40:18.703Z,100.00
2022-07-30T06:43:12.990Z,100.00
2022-07-30T06:45:50.131Z,100.00
2022-07-30T06:48:23.275Z,100.00
2022-07-30T06:50:50.108Z,100.00
2022-07-30T06:53:17.137Z,100.00
2022-07-30T06:56:06.942Z,100.00
2022-07-30T06:58:43.578Z,100.00
2022-07-30T07:01:33.407Z,100.00
2022-07-30T07:04:00.654Z,100.00
2022-07-30T07:06:27.383Z,100.00
2022-07-30T07:08:54.194Z,100.00
2022-07-30T07:11:29.190Z,100.00
2022-07-30T07:13:59.305Z,100.00
2022-07-30T07:16:33.868Z,100.00
2022-07-30T07:19:59.991Z,100.00
2022-07-30T07:22:07.179Z,100.00
2022-07-30T07:24:34.091Z,100.00
2022-07-30T07:27:12.452Z,100.00
2022-07-30T07:30:05.780Z,100.00
2022-07-30T07:32:31.081Z,100.00
2022-07-30T07:34:57.724Z,100.00
2022-07-30T07:37:24.465Z,100.00
2022-07-30T07:39:51.104Z,100.00
2022-07-30T07:42:17.921Z,100.00
2022-07-30T07:44:45.096Z,100.00
2022-07-30T07:47:11.760Z,99.90
2022-07-30T07:49:44.743Z,97.70
2022-07-30T07:52:11.611Z,99.59
2022-07-30T07:54:38.816Z,99.97
2022-07-30T07:57:08.741Z,100.00
2022-07-30T07:59:41.003Z,99.04
2022-07-30T08:02:26.579Z,96.56
2022-07-30T08:04:59.173Z,97.31
2022-07-30T08:07:42.159Z,95.62
2022-07-30T08:10:34.840Z,94.90
2022-07-30T08:13:48.440Z,93.64
2022-07-30T08:16:25.636Z,91.97
2022-07-30T08:19:27.695Z,94.97
2022-07-30T08:22:07.835Z,94.02
2022-07-30T08:24:34.778Z,90.84
2022-07-30T08:27:01.831Z,92.82
2022-07-30T08:29:29.919Z,93.54
2022-07-30T08:31:56.790Z,87.43
2022-07-30T08:34:25.983Z,90.37
2022-07-30T08:36:55.781Z,94.26
2022-07-30T08:39:22.462Z,92.14
2022-07-30T08:41:49.368Z,92.11
2022-07-30T08:44:18.708Z,93.84
2022-07-30T08:46:51.786Z,90.85
2022-07-30T08:49:37.986Z,90.10
2022-07-30T08:52:05.903Z,92.11
2022-07-30T08:54:40.769Z,93.96
2022-07-30T08:57:07.674Z,95.24
2022-07-30T09:00:00.143Z,93.94
2022-07-30T09:02:30.198Z,95.27
2022-07-30T09:05:01.743Z,93.72
2022-07-30T09:07:28.925Z,92.06
2022-07-30T09:09:57.683Z,90.88
2022-07-30T09:12:32.499Z,92.82
2022-07-30T09:15:26.582Z,89.68
2022-07-30T09:18:01.500Z,91.00
2022-07-30T09:20:34.766Z,89.77
2022-07-30T09:23:06.089Z,89.63
2022-07-30T09:25:51.999Z,83.71
2022-07-30T09:28:44.943Z,80.36
2022-07-30T09:31:14.861Z,78.27
2022-07-30T09:33:59.996Z,77.36
2022-07-30T09:36:45.281Z,80.76
2022-07-30T09:39:56.636Z,75.66
2022-07-30T09:42:39.663Z,76.08
2022-07-30T09:45:14.166Z,72.91
2022-07-30T09:47:49.294Z,73.54
2022-07-30T09:50:30.310Z,75.61
2022-07-30T09:53:08.008Z,78.10
2022-07-30T09:55:41.136Z,80.02
2022-07-30T09:58:12.947Z,77.85
2022-07-30T10:00:48.803Z,75.37
2022-07-30T10:03:46.720Z,74.86
2022-07-30T10:06:38.203Z,75.54
2022-07-30T10:09:37.449Z,75.87
2022-07-30T10:12:10.627Z,76.06
2022-07-30T10:14:43.897Z,76.87
2022-07-30T10:17:13.130Z,76.90
2022-07-30T10:19:42.224Z,77.99
2022-07-30T10:22:28.576Z,78.88
2022-07-30T10:25:22.891Z,78.01
2022-07-30T10:28:09.345Z,78.08
2022-07-30T10:30:36.998Z,77.04
2022-07-30T10:33:04.466Z,76.32
2022-07-30T10:35:38.187Z,76.41
2022-07-30T10:38:13.686Z,74.02
2022-07-30T10:40:54.199Z,76.29
2022-07-30T10:43:35.786Z,75.93
2022-07-30T10:46:22.891Z,75.27
2022-07-30T10:48:50.782Z,75.76
2022-07-30T10:51:25.531Z,74.62
2022-07-30T10:54:01.231Z,77.37
2022-07-30T10:56:27.994Z,78.94
2022-07-30T10:59:11.197Z,77.97
2022-07-30T11:01:48.733Z,79.97
2022-07-30T11:04:20.466Z,79.81
2022-07-30T11:06:48.245Z,78.54
2022-07-30T11:09:41.001Z,77.45
2022-07-30T11:12:16.292Z,79.61
2022-07-30T11:14:46.145Z,80.08
2022-07-30T11:17:19.134Z,80.10
2022-07-30T11:20:11.723Z,80.61
2022-07-30T11:22:44.910Z,79.13
2022-07-30T11:25:27.443Z,78.55
2022-07-30T11:28:46.103Z,80.70
2022-07-30T11:31:56.626Z,78.19
2022-07-30T11:34:24.058Z,79.40
2022-07-30T11:37:18.816Z,78.81
2022-07-30T11:39:55.257Z,78.25
2022-07-30T11:42:28.992Z,75.83
2022-07-30T11:45:23.167Z,75.65
2022-07-30T11:47:55.773Z,80.17
2022-07-30T11:50:33.621Z,79.09
2022-07-30T11:53:15.994Z,82.13
2022-07-30T11:55:47.659Z,79.17
2022-07-30T11:58:33.073Z,81.29
2022-07-30T12:01:02.503Z,80.62
2022-07-30T12:03:41.322Z,79.36
2022-07-30T12:06:17.875Z,78.96
2022-07-30T12:08:46.825Z,79.47
2022-07-30T12:11:13.687Z,73.58
2022-07-30T12:13:46.184Z,71.06
2022-07-30T12:16:17.721Z,66.97
2022-07-30T12:18:45.925Z,66.02
2022-07-30T12:21:16.596Z,64.36
2022-07-30T12:23:59.444Z,64.93
2022-07-30T12:26:35.743Z,66.97
2022-07-30T12:29:05.805Z,67.13
2022-07-30T12:31:38.444Z,68.18
2022-07-30T12:34:27.661Z,68.87
2022-07-30T12:36:54.972Z,68.12
2022-07-30T12:39:27.848Z,67.35
2022-07-30T12:41:58.111Z,66.85
2022-07-30T12:44:39.202Z,66.97
2022-07-30T12:47:19.090Z,66.20
2022-07-30T12:49:49.744Z,62.64
2022-07-30T12:52:34.636Z,65.38
2022-07-30T12:55:10.466Z,63.49
2022-07-30T12:58:01.700Z,61.43
2022-07-30T13:00:54.859Z,58.12
2022-07-30T13:03:23.563Z,57.46
2022-07-30T13:05:52.066Z,57.97
2022-07-30T13:08:45.191Z,59.17
2022-07-30T13:11:12.314Z,62.88
2022-07-30T13:13:39.541Z,58.16
2022-07-30T13:16:07.641Z,61.07
2022-07-30T13:18:35.804Z,61.62
2022-07-30T13:21:04.312Z,61.56
2022-07-30T13:23:31.359Z,58.71
2022-07-30T13:25:58.444Z,57.43
2022-07-30T13:28:25.490Z,54.51
2022-07-30T13:30:52.516Z,53.83
2022-07-30T13:33:19.209Z,52.90
2022-07-30T13:35:45.835Z,53.32
2022-07-30T13:38:13.572Z,56.65
2022-07-30T13:40:41.371Z,58.13
2022-07-30T13:43:08.364Z,57.71
2022-07-30T13:45:35.781Z,57.58
2022-07-30T13:48:03.864Z,57.93
2022-07-30T13:50:30.891Z,55.03
2022-07-30T13:53:01.779Z,57.08
2022-07-30T13:55:29.371Z,57.42
2022-07-30T13:57:56.608Z,57.29
2022-07-30T14:00:23.429Z,57.08
2022-07-30T14:02:50.630Z,57.58
2022-07-30T14:05:17.662Z,56.84
2022-07-30T14:07:44.372Z,56.99
2022-07-30T14:10:11.024Z,56.84
2022-07-30T14:12:37.949Z,54.55
2022-07-30T14:15:05.098Z,53.52
2022-07-30T14:17:31.953Z,56.35
2022-07-30T14:19:59.026Z,57.33
2022-07-30T14:22:25.641Z,55.50
2022-07-30T14:24:52.324Z,56.24
2022-07-30T14:27:20.494Z,55.17
2022-07-30T14:29:47.310Z,55.03
2022-07-30T14:32:14.340Z,52.65
2022-07-30T14:34:41.355Z,52.15
2022-07-30T14:37:16.079Z,50.79
2022-07-30T14:39:42.904Z,52.91
2022-07-30T14:42:09.598Z,48.52
2022-07-30T14:44:36.263Z,47.24
2022-07-30T14:47:03.429Z,47.58
2022-07-30T14:49:30.661Z,46.99
2022-07-30T14:51:57.427Z,47.69
2022-07-30T14:54:24.173Z,46.83
2022-07-30T14:56:54.877Z,49.90
2022-07-30T14:59:25.318Z,47.67
2022-07-30T15:01:52.647Z,49.09
2022-07-30T15:04:19.463Z,47.20
2022-07-30T15:06:46.388Z,42.87
2022-07-30T15:09:13.325Z,44.01
2022-07-30T15:12:07.999Z,43.13
2022-07-30T15:14:27.075Z,42.05
2022-07-30T15:16:56.766Z,43.57
2022-07-30T15:19:25.478Z,37.82
2022-07-30T15:21:52.191Z,40.04
2022-07-30T15:24:18.849Z,37.35
2022-07-30T15:26:45.529Z,37.72
2022-07-30T15:29:13.485Z,37.34
2022-07-30T15:31:40.285Z,36.42
2022-07-30T15:34:10.849Z,37.84
2022-07-30T15:36:41.837Z,37.68
2022-07-30T15:39:08.470Z,36.22
2022-07-30T15:41:36.932Z,36.39
2022-07-30T15:44:04.107Z,35.08
2022-07-30T15:46:30.889Z,34.49
2022-07-30T15:48:57.585Z,35.78
2022-07-30T15:51:24.448Z,35.75
2022-07-30T15:53:51.133Z,36.88
2022-07-30T15:56:18.703Z,36.81
2022-07-30T15:58:45.338Z,36.75
2022-07-30T16:01:12.159Z,36.42
2022-07-30T16:03:38.876Z,36.86
2022-07-30T16:06:05.647Z,36.01
2022-07-30T16:08:32.413Z,37.06
2022-07-30T16:10:59.170Z,34.78
2022-07-30T16:13:25.826Z,34.63
2022-07-30T16:15:52.526Z,34.96
2022-07-30T16:18:19.179Z,34.64
2022-07-30T16:20:45.885Z,34.73
2022-07-30T16:23:15.989Z,34.10
2022-07-30T16:25:46.313Z,34.11
2022-07-30T16:28:13.164Z,33.03
2022-07-30T16:30:49.029Z,34.65
2022-07-30T16:33:19.553Z,33.87
2022-07-30T16:35:49.330Z,34.80
2022-07-30T16:38:19.714Z,33.71
2022-07-30T16:40:46.607Z,33.76
2022-07-30T16:43:16.317Z,34.74
2022-07-30T16:45:46.157Z,34.95
2022-07-30T16:48:13.807Z,36.34
2022-07-30T16:50:41.573Z,35.65
2022-07-30T16:53:13.510Z,36.01
2022-07-30T16:55:41.189Z,35.61
2022-07-30T16:58:07.839Z,35.37
2022-07-30T17:00:34.729Z,35.99
2022-07-30T17:03:01.508Z,36.25
2022-07-30T17:05:28.319Z,34.77
2022-07-30T17:07:55.139Z,36.26
2022-07-30T17:10:24.210Z,36.09
2022-07-30T17:12:53.152Z,35.94
2022-07-30T17:15:19.994Z,35.80
2022-07-30T17:17:46.639Z,34.75
2022-07-30T17:20:14.516Z,35.78
2022-07-30T17:22:43.084Z,35.33
2022-07-30T17:25:10.119Z,36.00
2022-07-30T17:27:37.414Z,37.24
2022-07-30T17:30:05.898Z,37.70
2022-07-30T17:32:32.734Z,37.35
2022-07-30T17:34:59.529Z,37.91
2022-07-30T17:37:26.257Z,38.16
2022-07-30T17:40:22.955Z,38.39
2022-07-30T17:42:43.852Z,39.51
2022-07-30T17:45:12.024Z,39.47
2022-07-30T17:47:38.922Z,39.11
2022-07-30T17:50:06.729Z,39.91
2022-07-30T17:52:34.047Z,40.46
2022-07-30T17:55:01.103Z,38.77
2022-07-30T17:57:28.078Z,38.84
2022-07-30T17:59:54.737Z,38.31
2022-07-30T18:02:27.526Z,37.63
2022-07-30T18:04:56.469Z,37.47
2022-07-30T18:07:23.415Z,37.51
2022-07-30T18:09:50.038Z,36.36
2022-07-30T18:12:16.806Z,36.43
2022-07-30T18:14:43.484Z,36.86
2022-07-30T18:17:14.204Z,37.56
2022-07-30T18:19:41.218Z,37.67
2022-07-30T18:22:08.034Z,37.79
2022-07-30T18:24:34.695Z,37.63
2022-07-30T18:27:07.601Z,37.83
2022-07-30T18:29:34.305Z,38.34
2022-07-30T18:32:01.300Z,37.58
2022-07-30T18:34:28.258Z,37.61
2022-07-30T18:36:55.030Z,38.26
2022-07-30T18:39:21.672Z,38.46
2022-07-30T18:41:48.444Z,38.96
2022-07-30T18:44:15.088Z,39.37
2022-07-30T18:46:41.894Z,40.02
2022-07-30T18:49:33.911Z,42.88
2022-07-30T18:51:55.491Z,44.39
2022-07-30T18:54:23.383Z,44.90
2022-07-30T18:56:50.154Z,45.17
2022-07-30T18:59:16.818Z,46.53
2022-07-30T19:01:43.994Z,46.29
2022-07-30T19:04:10.831Z,45.45
2022-07-30T19:06:38.062Z,46.58
2022-07-30T19:09:05.524Z,47.03
2022-07-30T19:11:32.642Z,46.92
2022-07-30T19:13:59.528Z,46.76
2022-07-30T19:16:26.157Z,47.02
2022-07-30T19:18:52.789Z,42.18
2022-07-30T19:21:19.502Z,41.97
2022-07-30T19:23:46.165Z,41.71
2022-07-30T19:26:14.459Z,41.54
2022-07-30T19:28:41.095Z,41.81
2022-07-30T19:31:07.763Z,42.00
2022-07-30T19:33:34.701Z,44.54
2022-07-30T19:36:02.868Z,44.50
2022-07-30T19:38:29.515Z,45.38
2022-07-30T19:40:57.100Z,45.94
2022-07-30T19:43:24.624Z,46.09
2022-07-30T19:45:51.592Z,47.09
2022-07-30T19:48:29.292Z,47.23
2022-07-30T19:50:59.513Z,47.99
2022-07-30T19:53:28.059Z,47.44
2022-07-30T19:56:01.670Z,47.28
2022-07-30T19:58:28.572Z,47.31
2022-07-30T20:00:55.194Z,48.57
2022-07-30T20:03:26.282Z,47.56
2022-07-30T20:05:58.729Z,48.40
2022-07-30T20:08:25.485Z,48.48
2022-07-30T20:10:52.604Z,48.95
2022-07-30T20:13:19.553Z,49.40
2022-07-30T20:15:46.539Z,49.78
2022-07-30T20:18:13.452Z,49.99
2022-07-30T20:20:41.392Z,51.06
2022-07-30T20:23:08.274Z,51.00
2022-07-30T20:25:37.285Z,52.01
2022-07-30T20:28:05.215Z,53.01
2022-07-30T20:30:32.822Z,52.31
2022-07-30T20:32:59.581Z,51.55
2022-07-30T20:35:27.766Z,51.33
2022-07-30T20:37:56.601Z,51.11
2022-07-30T20:43:11.922Z,49.86
2022-07-30T20:45:41.406Z,49.88
2022-07-30T20:48:08.579Z,49.53
2022-07-30T20:50:46.037Z,48.79
2022-07-30T20:53:16.215Z,49.77
2022-07-30T20:55:42.883Z,50.10
2022-07-30T20:58:16.734Z,51.72
2022-07-30T21:00:49.598Z,52.06
2022-07-30T21:03:18.077Z,51.44
2022-07-30T21:05:48.267Z,50.56
2022-07-30T21:08:18.103Z,50.01
2022-07-30T21:10:46.791Z,49.43
2022-07-30T21:13:13.818Z,49.34
2022-07-30T21:15:45.512Z,49.35
2022-07-30T21:18:27.344Z,50.52
2022-07-30T21:20:53.959Z,50.54
2022-07-30T21:23:24.766Z,51.76
2022-07-30T21:26:00.785Z,52.37
2022-07-30T21:28:35.165Z,54.69
2022-07-30T21:31:03.452Z,54.15
2022-07-30T21:33:31.693Z,55.75
2022-07-30T21:35:59.409Z,55.67
2022-07-30T21:38:30.441Z,55.20
2022-07-30T21:40:58.076Z,53.69
2022-07-30T21:43:29.609Z,53.69
2022-07-30T21:45:57.030Z,53.20
2022-07-30T21:48:28.403Z,51.74
2022-07-30T21:50:56.140Z,49.26
2022-07-30T21:53:29.557Z,48.89
2022-07-30T21:56:10.618Z,49.36
2022-07-30T21:58:39.189Z,52.10
2022-07-30T22:01:17.703Z,52.87
2022-07-30T22:04:04.729Z,54.26
2022-07-30T22:06:38.347Z,55.79
2022-07-30T22:09:18.915Z,55.37
2022-07-30T22:11:55.522Z,55.85
2022-07-30T22:14:22.671Z,55.14
2022-07-30T22:16:52.353Z,55.08
2022-07-30T22:19:21.671Z,55.39
2022-07-30T22:21:49.184Z,56.13
2022-07-30T22:24:28.788Z,56.97
2022-07-30T22:27:01.698Z,56.83
2022-07-30T22:29:38.156Z,56.14
2022-07-30T22:32:06.632Z,56.91
2022-07-30T22:34:34.533Z,56.53
2022-07-30T22:37:01.246Z,55.92
2022-07-30T22:39:31.511Z,56.28
2022-07-30T22:41:58.528Z,56.73
2022-07-30T22:44:27.745Z,56.98
2022-07-30T22:46:56.270Z,56.87
2022-07-30T22:49:43.639Z,56.96
2022-07-30T22:52:19.536Z,56.17
2022-07-30T22:54:50.978Z,57.01
2022-07-30T22:57:17.687Z,56.67
2022-07-30T22:59:58.171Z,56.39
2022-07-30T23:02:25.529Z,56.45
2022-07-30T23:04:56.276Z,56.44
2022-07-30T23:07:23.579Z,55.95
2022-07-30T23:10:03.230Z,55.40
2022-07-30T23:12:18.317Z,49.50
2022-07-30T23:12:35.599Z,53.67
2022-07-30T23:15:03.209Z,55.82
2022-07-30T23:17:29.862Z,56.28
2022-07-30T23:19:56.434Z,56.36
2022-07-30T23:22:23.094Z,56.31
2022-07-30T23:24:51.388Z,56.07
2022-07-30T23:27:18.023Z,56.49
2022-07-30T23:29:44.646Z,55.46
2022-07-30T23:32:11.397Z,55.83
2022-07-30T23:34:38.186Z,55.71
2022-07-30T23:37:06.052Z,55.46
2022-07-30T23:39:33.011Z,56.56
2022-07-30T23:41:59.649Z,56.49
2022-07-30T23:44:26.376Z,57.53
2022-07-30T23:46:53.017Z,57.86
2022-07-30T23:49:19.770Z,59.15
2022-07-30T23:51:46.378Z,58.36
2022-07-30T23:54:12.996Z,58.70
2022-07-30T23:56:40.033Z,59.11
2022-07-30T23:59:06.674Z,58.93
